Time;durP1;ratioP1;P1;durP2;ratioP2;P2;SDS_P1;SDS_P2;PMS_P1;PMS_P2;Temp;Humidity;BMP_temperature;BMP_pressure;BME280_temperature;BME280_humidity;BME280_pressure;Samples;Min_cycle;Max_cycle;Signal;HPM_P1;HPM_P2
2022/03/16 00:01:44;;;;;;;79.32;20.38;;;;;;;;;;5042334;28;20111;-60
2022/03/16 00:04:10;;;;;;;21.45;15.25;;;;;;;;;;5036727;28;20041;-60
2022/03/16 00:06:36;;;;;;;354.38;33.80;;;;;;;;;;5034551;28;20040;-60
2022/03/16 00:09:02;;;;;;;22.58;15.40;;;;;;;;;;5027838;28;21470;-60
2022/03/16 00:11:28;;;;;;;34.95;21.83;;;;;;;;;;5023956;28;20109;-60
2022/03/16 00:13:54;;;;;;;32.55;19.88;;;;;;;;;;5041793;28;20036;-60
2022/03/16 00:16:20;;;;;;;41.47;24.58;;;;;;;;;;5036522;28;20160;-60
2022/03/16 00:18:46;;;;;;;49.08;26.38;;;;;;;;;;5038468;28;20029;-60
2022/03/16 00:21:12;;;;;;;49.83;27.65;;;;;;;;;;5031011;28;20037;-60
2022/03/16 00:23:37;;;;;;;47.15;25.77;;;;;;;;;;5032503;28;20397;-60
2022/03/16 00:26:03;;;;;;;49.33;27.20;;;;;;;;;;5030244;28;20049;-60
2022/03/16 00:28:29;;;;;;;48.65;27.33;;;;;;;;;;5041738;28;20062;-60
2022/03/16 00:30:56;;;;;;;45.38;25.67;;;;;;;;;;5037271;28;20060;-60
2022/03/16 00:33:22;;;;;;;73.07;36.83;;;;;;;;;;5027712;28;20048;-60
2022/03/16 00:35:48;;;;;;;39.45;22.30;;;;;;;;;;5028673;28;20034;-60
2022/03/16 00:38:16;;;;;;;51.08;23.95;;;;;;;;;;5032252;28;20464;-60
2022/03/16 00:40:42;;;;;;;140.27;23.98;;;;;;;;;;5032054;28;20091;-59
2022/03/16 00:43:08;;;;;;;158.27;24.85;;;;;;;;;;5032533;28;20049;-60
2022/03/16 00:45:34;;;;;;;99.43;18.65;;;;;;;;;;5029922;28;20037;-59
2022/03/16 00:48:00;;;;;;;51.95;17.05;;;;;;;;;;5023078;28;20049;-60
2022/03/16 00:50:27;;;;;;;26.75;16.52;;;;;;;;;;5037225;28;20117;-59
2022/03/16 00:52:53;;;;;;;73.07;17.80;;;;;;;;;;5028456;28;20053;-60
2022/03/16 00:55:20;;;;;;;85.40;18.52;;;;;;;;;;5036345;28;20478;-60
2022/03/16 00:57:46;;;;;;;48.55;17.40;;;;;;;;;;5030712;28;20148;-59
2022/03/16 01:00:12;;;;;;;27.70;17.58;;;;;;;;;;5021508;28;20047;-59
2022/03/16 01:02:38;;;;;;;30.80;20.35;;;;;;;;;;5038445;28;20077;-60
2022/03/16 01:05:05;;;;;;;40.28;22.50;;;;;;;;;;5025565;28;20041;-59
2022/03/16 01:07:31;;;;;;;53.55;28.38;;;;;;;;;;5030409;28;20041;-60
2022/03/16 01:09:57;;;;;;;58.78;29.30;;;;;;;;;;5028169;28;20033;-60
2022/03/16 01:12:23;;;;;;;57.05;28.20;;;;;;;;;;5025065;28;20052;-60
2022/03/16 01:14:49;;;;;;;55.20;29.48;;;;;;;;;;5028389;28;20124;-60
2022/03/16 01:17:15;;;;;;;52.00;27.85;;;;;;;;;;5034172;28;20037;-60
2022/03/16 01:19:41;;;;;;;46.90;25.98;;;;;;;;;;5028747;28;20065;-60
2022/03/16 01:22:07;;;;;;;49.13;26.77;;;;;;;;;;5028380;28;20486;-60
2022/03/16 01:24:33;;;;;;;50.20;26.90;;;;;;;;;;5027232;28;20046;-61
2022/03/16 01:27:00;;;;;;;49.75;26.85;;;;;;;;;;5026976;28;20053;-60
2022/03/16 01:29:26;;;;;;;60.03;27.30;;;;;;;;;;5035533;28;20512;-60
2022/03/16 01:31:53;;;;;;;73.60;27.27;;;;;;;;;;5028309;28;20041;-60
2022/03/16 01:34:19;;;;;;;57.78;24.90;;;;;;;;;;5032648;28;20083;-60
2022/03/16 01:36:45;;;;;;;45.67;23.75;;;;;;;;;;5033431;28;20438;-60
2022/03/16 01:39:11;;;;;;;52.60;25.88;;;;;;;;;;5029369;28;20114;-60
2022/03/16 01:41:37;;;;;;;255.32;34.60;;;;;;;;;;5035238;28;20037;-60
2022/03/16 01:44:03;;;;;;;273.90;34.95;;;;;;;;;;5036674;28;20197;-60
2022/03/16 01:46:29;;;;;;;62.97;28.40;;;;;;;;;;5037208;28;20507;-60
2022/03/16 01:48:55;;;;;;;65.20;28.40;;;;;;;;;;5034067;28;20135;-59
2022/03/16 01:51:22;;;;;;;57.58;28.30;;;;;;;;;;5034713;28;20052;-59
2022/03/16 01:53:49;;;;;;;56.78;26.63;;;;;;;;;;5035580;28;20140;-60
2022/03/16 01:56:16;;;;;;;53.63;26.95;;;;;;;;;;5039061;28;20065;-59
2022/03/16 01:58:42;;;;;;;48.33;25.02;;;;;;;;;;5002887;28;20045;-59
2022/03/16 02:01:08;;;;;;;64.78;26.00;;;;;;;;;;5038134;28;20036;-59
2022/03/16 02:03:34;;;;;;;87.10;28.52;;;;;;;;;;5037900;28;20033;-59
2022/03/16 02:06:00;;;;;;;46.85;25.42;;;;;;;;;;5039094;28;20044;-59
2022/03/16 02:08:28;;;;;;;62.28;26.13;;;;;;;;;;5027950;28;20073;-59
2022/03/16 02:10:54;;;;;;;56.45;25.33;;;;;;;;;;5024632;28;20041;-59
2022/03/16 02:13:20;;;;;;;193.00;27.48;;;;;;;;;;5020394;28;20056;-59
2022/03/16 02:15:46;;;;;;;144.95;24.75;;;;;;;;;;5032203;28;20170;-59
2022/03/16 02:18:13;;;;;;;144.13;24.35;;;;;;;;;;5032528;28;20113;-59
2022/03/16 02:20:39;;;;;;;164.07;25.55;;;;;;;;;;5032779;28;20043;-60
2022/03/16 02:23:06;;;;;;;177.15;27.08;;;;;;;;;;5032127;28;20087;-60
2022/03/16 02:25:33;;;;;;;208.35;26.27;;;;;;;;;;5037292;28;20546;-60
2022/03/16 02:27:59;;;;;;;199.25;25.25;;;;;;;;;;5030588;28;20495;-60
2022/03/16 02:30:27;;;;;;;36.90;19.00;;;;;;;;;;5033355;28;20033;-60
2022/03/16 02:32:53;;;;;;;60.22;18.80;;;;;;;;;;5024086;28;20034;-60
2022/03/16 02:35:20;;;;;;;33.03;17.52;;;;;;;;;;5022368;28;20052;-60
2022/03/16 02:37:46;;;;;;;67.47;16.65;;;;;;;;;;5030235;28;20041;-59
2022/03/16 02:40:17;;;;;;;97.68;18.33;;;;;;;;;;5037236;28;20119;-60
2022/03/16 02:42:43;;;;;;;81.45;18.40;;;;;;;;;;5030861;28;20045;-60
2022/03/16 02:45:09;;;;;;;36.92;15.45;;;;;;;;;;5038008;28;20041;-59
2022/03/16 02:47:35;;;;;;;18.05;14.75;;;;;;;;;;5029875;28;20316;-59
2022/03/16 02:50:04;;;;;;;21.10;14.02;;;;;;;;;;5027727;28;20049;-59
2022/03/16 02:52:30;;;;;;;76.25;17.67;;;;;;;;;;5035920;28;20049;-59
2022/03/16 02:54:56;;;;;;;20.23;14.82;;;;;;;;;;5040866;28;20041;-59
2022/03/16 02:57:22;;;;;;;47.90;16.35;;;;;;;;;;5033749;28;20445;-59
2022/03/16 02:59:48;;;;;;;34.10;15.82;;;;;;;;;;5033713;28;20533;-59
2022/03/16 03:02:14;;;;;;;57.53;16.90;;;;;;;;;;5040663;28;20037;-60
2022/03/16 03:04:40;;;;;;;24.42;14.98;;;;;;;;;;5036487;28;20502;-60
2022/03/16 03:07:07;;;;;;;19.58;15.25;;;;;;;;;;5032889;28;20037;-59
2022/03/16 03:09:33;;;;;;;26.42;16.55;;;;;;;;;;5034530;28;20092;-59
2022/03/16 03:11:59;;;;;;;23.55;16.13;;;;;;;;;;5039302;28;20096;-59
2022/03/16 03:14:25;;;;;;;25.80;17.13;;;;;;;;;;5033112;28;20037;-59
2022/03/16 03:16:51;;;;;;;25.33;16.65;;;;;;;;;;5039807;28;20033;-59
2022/03/16 03:19:17;;;;;;;30.30;18.10;;;;;;;;;;5038397;28;20078;-59
2022/03/16 03:21:43;;;;;;;85.03;19.83;;;;;;;;;;5040762;28;20038;-59
2022/03/16 03:24:09;;;;;;;104.20;18.88;;;;;;;;;;5032098;28;20077;-59
2022/03/16 03:26:35;;;;;;;92.57;17.45;;;;;;;;;;5036378;28;20456;-59
2022/03/16 03:29:01;;;;;;;60.17;16.33;;;;;;;;;;5037745;28;20048;-59
2022/03/16 03:31:27;;;;;;;49.90;15.98;;;;;;;;;;5037481;28;20091;-59
2022/03/16 03:33:53;;;;;;;46.35;15.43;;;;;;;;;;5032967;28;20041;-59
2022/03/16 03:36:19;;;;;;;82.20;15.98;;;;;;;;;;5032806;28;20068;-59
2022/03/16 03:38:45;;;;;;;77.18;16.25;;;;;;;;;;5023893;28;20402;-60
2022/03/16 03:41:11;;;;;;;65.05;16.45;;;;;;;;;;5037988;28;20040;-60
2022/03/16 03:43:37;;;;;;;132.82;18.90;;;;;;;;;;5032457;28;20033;-60
2022/03/16 03:46:03;;;;;;;45.95;16.65;;;;;;;;;;5036453;28;20502;-60
2022/03/16 03:48:29;;;;;;;79.30;17.48;;;;;;;;;;5032839;28;20037;-60
2022/03/16 03:50:55;;;;;;;51.88;15.15;;;;;;;;;;5040060;28;20038;-60
2022/03/16 03:53:21;;;;;;;44.97;14.95;;;;;;;;;;5022610;28;20073;-60
2022/03/16 03:55:47;;;;;;;58.78;16.60;;;;;;;;;;5029802;28;20037;-59
2022/03/16 03:58:13;;;;;;;50.28;17.08;;;;;;;;;;5028302;28;20033;-59
2022/03/16 04:00:39;;;;;;;37.38;17.63;;;;;;;;;;5026869;28;20033;-59
2022/03/16 04:03:05;;;;;;;47.55;16.88;;;;;;;;;;5032030;28;20045;-59
2022/03/16 04:05:31;;;;;;;26.67;16.35;;;;;;;;;;5030579;28;20392;-59
2022/03/16 04:07:57;;;;;;;29.13;17.38;;;;;;;;;;5041202;28;20041;-59
2022/03/16 04:10:23;;;;;;;29.20;16.48;;;;;;;;;;5030825;28;20081;-59
2022/03/16 04:12:49;;;;;;;27.65;18.65;;;;;;;;;;5032831;28;20041;-59
2022/03/16 04:15:16;;;;;;;26.60;18.35;;;;;;;;;;5033853;28;20505;-60
2022/03/16 04:17:42;;;;;;;33.83;20.63;;;;;;;;;;5043509;28;20036;-60
2022/03/16 04:20:08;;;;;;;28.05;18.20;;;;;;;;;;5039422;28;20037;-60
2022/03/16 04:22:34;;;;;;;31.83;19.67;;;;;;;;;;5028870;28;20496;-60
2022/03/16 04:25:00;;;;;;;28.45;18.45;;;;;;;;;;5030684;28;20045;-60
2022/03/16 04:27:26;;;;;;;30.42;18.90;;;;;;;;;;5036418;28;20502;-60
2022/03/16 04:29:52;;;;;;;32.08;18.30;;;;;;;;;;5039122;28;20110;-60
2022/03/16 04:32:18;;;;;;;42.38;19.45;;;;;;;;;;5035859;28;20045;-60
2022/03/16 04:34:44;;;;;;;81.75;20.73;;;;;;;;;;5034385;28;20065;-60
2022/03/16 04:37:10;;;;;;;25.00;17.90;;;;;;;;;;5030637;28;20128;-60
2022/03/16 04:39:36;;;;;;;27.13;18.25;;;;;;;;;;5035714;28;20033;-60
2022/03/16 04:42:02;;;;;;;29.83;19.40;;;;;;;;;;5036145;28;20052;-60
2022/03/16 04:44:28;;;;;;;31.48;19.17;;;;;;;;;;5030994;28;20124;-60
2022/03/16 04:46:54;;;;;;;28.35;19.90;;;;;;;;;;5031815;28;20125;-60
2022/03/16 04:49:20;;;;;;;38.33;21.50;;;;;;;;;;5027314;28;20040;-60
2022/03/16 04:51:46;;;;;;;26.67;17.65;;;;;;;;;;5038089;28;20037;-60
2022/03/16 04:54:14;;;;;;;30.35;20.23;;;;;;;;;;5023321;28;20404;-60
2022/03/16 04:56:40;;;;;;;32.67;21.67;;;;;;;;;;5039058;28;20037;-60
2022/03/16 04:59:07;;;;;;;45.10;19.80;;;;;;;;;;5036915;28;20168;-60
2022/03/16 05:01:33;;;;;;;33.88;20.67;;;;;;;;;;5024188;28;20083;-59
2022/03/16 05:03:59;;;;;;;56.63;20.55;;;;;;;;;;5032052;28;20045;-59
2022/03/16 05:06:25;;;;;;;32.25;19.75;;;;;;;;;;5028641;28;20045;-59
2022/03/16 05:08:51;;;;;;;29.75;18.95;;;;;;;;;;5031422;28;20050;-59
2022/03/16 05:11:20;;;;;;;32.30;20.88;;;;;;;;;;5031626;28;20164;-60
2022/03/16 05:13:46;;;;;;;35.38;20.83;;;;;;;;;;5012466;28;20096;-59
2022/03/16 05:16:12;;;;;;;38.13;22.08;;;;;;;;;;5022236;28;20038;-60
2022/03/16 05:18:40;;;;;;;34.80;20.75;;;;;;;;;;5028091;28;20572;-60
2022/03/16 05:21:09;;;;;;;38.65;22.67;;;;;;;;;;5030380;28;20045;-59
2022/03/16 05:23:35;;;;;;;35.70;20.58;;;;;;;;;;5031287;28;20048;-59
2022/03/16 05:26:02;;;;;;;38.33;22.38;;;;;;;;;;5027737;28;20438;-59
2022/03/16 05:28:28;;;;;;;39.60;22.35;;;;;;;;;;5012718;28;20161;-59
2022/03/16 05:30:54;;;;;;;36.35;21.60;;;;;;;;;;5030451;28;20077;-59
2022/03/16 05:33:21;;;;;;;31.55;19.75;;;;;;;;;;5031675;28;20056;-59
2022/03/16 05:35:47;;;;;;;58.20;22.00;;;;;;;;;;5055379;22;20117;-61
2022/03/16 05:38:13;;;;;;;42.70;21.10;;;;;;;;;;5057414;28;20032;-61
2022/03/16 05:40:40;;;;;;;33.10;19.75;;;;;;;;;;5070763;28;20132;-61
2022/03/16 05:43:06;;;;;;;68.80;19.77;;;;;;;;;;5070428;28;20059;-61
2022/03/16 05:45:32;;;;;;;54.90;19.70;;;;;;;;;;5065561;28;20049;-61
2022/03/16 05:47:58;;;;;;;84.60;21.92;;;;;;;;;;5051204;28;20414;-61
2022/03/16 05:50:28;;;;;;;95.68;20.65;;;;;;;;;;5050780;28;20065;-61
2022/03/16 05:52:58;;;;;;;90.90;20.83;;;;;;;;;;5049620;28;20052;-61
2022/03/16 05:55:24;;;;;;;208.02;34.55;;;;;;;;;;5048777;28;20025;-61
2022/03/16 05:57:50;;;;;;;26.38;16.98;;;;;;;;;;5048791;28;20150;-61
2022/03/16 06:00:17;;;;;;;26.52;17.55;;;;;;;;;;5048280;28;20055;-61
2022/03/16 06:02:46;;;;;;;39.00;21.83;;;;;;;;;;5049213;28;20403;-61
2022/03/16 06:05:12;;;;;;;54.67;28.52;;;;;;;;;;5049358;28;20037;-61
2022/03/16 06:07:39;;;;;;;41.40;25.42;;;;;;;;;;5049761;28;20036;-61
2022/03/16 06:10:06;;;;;;;47.78;26.80;;;;;;;;;;5049991;28;20033;-61
2022/03/16 06:12:32;;;;;;;53.40;27.00;;;;;;;;;;5051886;28;20091;-61
2022/03/16 06:14:58;;;;;;;58.05;30.30;;;;;;;;;;5054495;28;20056;-61
2022/03/16 06:17:24;;;;;;;44.55;26.63;;;;;;;;;;5052715;28;20040;-61
2022/03/16 06:19:50;;;;;;;43.30;25.50;;;;;;;;;;5051445;28;20041;-61
2022/03/16 06:22:16;;;;;;;50.47;28.65;;;;;;;;;;5054948;28;20033;-61
2022/03/16 06:24:42;;;;;;;51.85;28.00;;;;;;;;;;5053427;28;20115;-61
2022/03/16 06:27:08;;;;;;;46.95;27.02;;;;;;;;;;5053788;28;20465;-62
2022/03/16 06:29:34;;;;;;;52.40;28.88;;;;;;;;;;5054986;28;20036;-61
2022/03/16 06:32:00;;;;;;;49.00;26.73;;;;;;;;;;5054910;28;20051;-61
2022/03/16 06:34:26;;;;;;;53.63;28.45;;;;;;;;;;5053004;28;20518;-61
2022/03/16 06:36:52;;;;;;;44.45;26.20;;;;;;;;;;5053386;28;20041;-61
2022/03/16 06:39:18;;;;;;;42.42;24.38;;;;;;;;;;5052490;28;20141;-61
2022/03/16 06:41:44;;;;;;;40.15;24.90;;;;;;;;;;5052317;28;20120;-61
2022/03/16 06:44:10;;;;;;;41.38;25.42;;;;;;;;;;5054045;28;20036;-61
2022/03/16 06:46:37;;;;;;;43.08;26.42;;;;;;;;;;5054469;28;20505;-61
2022/03/16 06:49:03;;;;;;;47.78;27.58;;;;;;;;;;5050084;28;20098;-61
2022/03/16 06:51:29;;;;;;;53.10;28.90;;;;;;;;;;5053634;28;20044;-61
2022/03/16 06:53:55;;;;;;;56.45;29.13;;;;;;;;;;5051732;28;20710;-61
2022/03/16 06:56:21;;;;;;;49.58;27.27;;;;;;;;;;5052943;28;20041;-61
2022/03/16 06:58:48;;;;;;;51.03;28.67;;;;;;;;;;5053135;28;20044;-61
2022/03/16 07:01:14;;;;;;;49.25;28.25;;;;;;;;;;5051181;28;20044;-62
2022/03/16 07:03:40;;;;;;;43.78;25.83;;;;;;;;;;5050900;28;20045;-61
2022/03/16 07:06:08;;;;;;;46.63;26.60;;;;;;;;;;5050486;28;20141;-61
2022/03/16 07:08:34;;;;;;;47.03;25.88;;;;;;;;;;5048570;28;20411;-61
2022/03/16 07:11:00;;;;;;;43.78;25.15;;;;;;;;;;5049714;28;20462;-61
2022/03/16 07:13:26;;;;;;;45.72;27.45;;;;;;;;;;5052530;28;20197;-61
2022/03/16 07:15:52;;;;;;;48.53;27.70;;;;;;;;;;5050359;28;20032;-61
2022/03/16 07:18:19;;;;;;;50.15;28.50;;;;;;;;;;5051357;28;20039;-61
2022/03/16 07:20:47;;;;;;;49.80;28.38;;;;;;;;;;5049117;28;20513;-61
2022/03/16 07:23:15;;;;;;;49.00;28.42;;;;;;;;;;5049706;28;20045;-61
2022/03/16 07:25:44;;;;;;;53.30;29.23;;;;;;;;;;5049544;28;22105;-61
2022/03/16 07:28:11;;;;;;;50.65;29.27;;;;;;;;;;5052086;28;20048;-61
2022/03/16 07:30:37;;;;;;;47.63;29.17;;;;;;;;;;5051580;28;20080;-61
2022/03/16 07:33:04;;;;;;;49.38;28.15;;;;;;;;;;5051030;28;20041;-61
2022/03/16 07:35:30;;;;;;;51.13;29.08;;;;;;;;;;5051171;28;20059;-61
2022/03/16 07:37:57;;;;;;;51.50;28.75;;;;;;;;;;5050629;28;20502;-61
2022/03/16 07:40:23;;;;;;;50.95;29.88;;;;;;;;;;5050008;28;20479;-61
2022/03/16 07:42:50;;;;;;;53.50;30.73;;;;;;;;;;5055929;28;20124;-61
2022/03/16 07:45:18;;;;;;;48.67;29.83;;;;;;;;;;5065962;28;20430;-61
2022/03/16 07:47:44;;;;;;;47.83;29.40;;;;;;;;;;5068899;28;20090;-62
2022/03/16 07:50:10;;;;;;;55.53;30.40;;;;;;;;;;5062400;28;20116;-61
2022/03/16 07:52:36;;;;;;;46.95;29.50;;;;;;;;;;5052931;28;20040;-62
2022/03/16 07:55:03;;;;;;;53.42;28.50;;;;;;;;;;5053056;28;20487;-62
2022/03/16 07:57:29;;;;;;;48.67;28.70;;;;;;;;;;5053168;28;20122;-61
2022/03/16 07:59:56;;;;;;;50.13;29.77;;;;;;;;;;5053461;28;20090;-62
2022/03/16 08:02:22;;;;;;;50.30;28.77;;;;;;;;;;5051686;28;20040;-62
2022/03/16 08:04:48;;;;;;;48.80;29.08;;;;;;;;;;5050495;28;20045;-61
2022/03/16 08:07:14;;;;;;;49.47;29.30;;;;;;;;;;5050788;28;20051;-62
2022/03/16 08:09:40;;;;;;;49.45;29.88;;;;;;;;;;5049429;28;20083;-62
2022/03/16 08:12:06;;;;;;;50.83;29.77;;;;;;;;;;5058112;28;20045;-62
2022/03/16 08:14:32;;;;;;;50.25;30.17;;;;;;;;;;5057394;28;20080;-62
2022/03/16 08:16:58;;;;;;;50.42;30.77;;;;;;;;;;5051927;28;20453;-61
2022/03/16 08:19:24;;;;;;;49.25;29.95;;;;;;;;;;5053877;28;20045;-61
2022/03/16 08:21:50;;;;;;;45.35;28.35;;;;;;;;;;5054944;28;20041;-62
2022/03/16 08:24:16;;;;;;;45.60;28.23;;;;;;;;;;5056803;28;20111;-62
2022/03/16 08:26:42;;;;;;;49.55;27.67;;;;;;;;;;5050518;28;20462;-62
2022/03/16 08:29:08;;;;;;;46.47;26.85;;;;;;;;;;5047934;28;20506;-62
2022/03/16 08:31:34;;;;;;;45.78;27.63;;;;;;;;;;5050538;28;20029;-62
2022/03/16 08:34:02;;;;;;;43.00;26.65;;;;;;;;;;5051814;28;20048;-62
2022/03/16 08:36:28;;;;;;;46.88;27.25;;;;;;;;;;5043054;28;20043;-61
2022/03/16 08:38:54;;;;;;;46.13;27.92;;;;;;;;;;5048162;28;20041;-62
2022/03/16 08:41:20;;;;;;;43.88;27.70;;;;;;;;;;5051933;28;20730;-62
2022/03/16 08:43:46;;;;;;;42.15;27.20;;;;;;;;;;5047200;28;20528;-62
2022/03/16 08:46:12;;;;;;;43.15;26.40;;;;;;;;;;5046510;28;20069;-62
2022/03/16 08:48:38;;;;;;;43.53;27.42;;;;;;;;;;5049549;28;20068;-62
2022/03/16 08:51:08;;;;;;;47.40;27.80;;;;;;;;;;5052084;28;20528;-62
2022/03/16 08:53:34;;;;;;;44.40;27.15;;;;;;;;;;5052173;28;20566;-62
2022/03/16 08:56:01;;;;;;;43.85;27.23;;;;;;;;;;5050522;28;20116;-62
2022/03/16 08:58:27;;;;;;;44.38;27.25;;;;;;;;;;5049246;28;20029;-62
2022/03/16 09:00:53;;;;;;;45.03;26.13;;;;;;;;;;5049450;28;20037;-62
2022/03/16 09:03:19;;;;;;;42.22;24.92;;;;;;;;;;5043556;28;20127;-62
2022/03/16 09:05:46;;;;;;;40.33;24.17;;;;;;;;;;5047434;28;20052;-62
2022/03/16 09:08:12;;;;;;;41.90;23.10;;;;;;;;;;5049845;28;20048;-62
2022/03/16 09:10:38;;;;;;;39.53;24.55;;;;;;;;;;5049513;28;20089;-61
2022/03/16 09:13:05;;;;;;;34.28;22.55;;;;;;;;;;5051395;28;20045;-62
2022/03/16 09:15:31;;;;;;;37.97;23.27;;;;;;;;;;5047190;28;20055;-62
2022/03/16 09:17:57;;;;;;;34.25;20.80;;;;;;;;;;5047553;28;20052;-62
2022/03/16 09:20:24;;;;;;;34.35;20.45;;;;;;;;;;5050045;28;20041;-62
2022/03/16 09:22:50;;;;;;;35.90;21.67;;;;;;;;;;5048997;28;20534;-62
2022/03/16 09:25:16;;;;;;;32.92;19.27;;;;;;;;;;5051173;28;20123;-62
2022/03/16 09:27:42;;;;;;;34.97;20.55;;;;;;;;;;5051264;28;20138;-62
2022/03/16 09:30:08;;;;;;;35.60;19.92;;;;;;;;;;5052809;28;20043;-62
2022/03/16 09:32:34;;;;;;;31.48;19.02;;;;;;;;;;5049952;28;20371;-61
2022/03/16 09:35:01;;;;;;;30.58;19.08;;;;;;;;;;5051932;28;20048;-62
2022/03/16 09:37:27;;;;;;;30.45;19.23;;;;;;;;;;5052420;28;20037;-62
2022/03/16 09:39:53;;;;;;;32.63;18.75;;;;;;;;;;5051517;28;20107;-62
2022/03/16 09:42:20;;;;;;;29.13;18.17;;;;;;;;;;5051885;28;20033;-62
2022/03/16 09:44:46;;;;;;;29.20;17.15;;;;;;;;;;5049949;28;20044;-62
2022/03/16 09:47:12;;;;;;;28.15;18.20;;;;;;;;;;5047647;28;20048;-62
2022/03/16 09:49:38;;;;;;;30.20;17.70;;;;;;;;;;5051096;28;20044;-62
2022/03/16 09:52:07;;;;;;;26.40;15.57;;;;;;;;;;5051734;28;20048;-62
2022/03/16 09:54:33;;;;;;;26.10;16.73;;;;;;;;;;5050835;28;20045;-62
2022/03/16 09:56:59;;;;;;;27.88;16.50;;;;;;;;;;5047657;28;20069;-61
2022/03/16 09:59:25;;;;;;;30.15;16.42;;;;;;;;;;5050586;28;20033;-62
2022/03/16 10:01:58;;;;;;;26.00;15.85;;;;;;;;;;5049092;28;20375;-62
2022/03/16 10:04:29;;;;;;;25.83;16.25;;;;;;;;;;5048472;28;20053;-62
2022/03/16 10:06:55;;;;;;;26.45;16.58;;;;;;;;;;5049415;28;20120;-62
2022/03/16 10:15:10;;;;;;;27.83;16.23;;;;;;;;;;5049600;28;20248;-62
2022/03/16 10:17:45;;;;;;;28.13;15.80;;;;;;;;;;5043416;28;20045;-62
2022/03/16 10:20:21;;;;;;;25.65;15.40;;;;;;;;;;5050333;28;20037;-61
2022/03/16 10:22:55;;;;;;;26.02;15.68;;;;;;;;;;5052623;28;20053;-61
2022/03/16 10:25:21;;;;;;;24.77;15.27;;;;;;;;;;5053259;28;20410;-61
2022/03/16 10:27:47;;;;;;;26.58;16.42;;;;;;;;;;5058001;28;20033;-61
2022/03/16 10:30:13;;;;;;;22.67;14.13;;;;;;;;;;5046843;28;20495;-61
2022/03/16 10:32:40;;;;;;;24.75;14.60;;;;;;;;;;5043991;28;20091;-61
2022/03/16 10:35:06;;;;;;;23.48;15.25;;;;;;;;;;5049027;28;20045;-62
2022/03/16 10:37:35;;;;;;;27.20;15.95;;;;;;;;;;5050867;28;20041;-61
2022/03/16 10:40:05;;;;;;;26.02;14.50;;;;;;;;;;5050848;28;20064;-61
2022/03/16 10:48:19;;;;;;;23.23;13.55;;;;;;;;;;5045521;28;20065;-61
2022/03/16 10:50:45;;;;;;;;;;;;;;;;;;5049359;28;20041;-61
2022/03/16 10:53:12;;;;;;;24.52;13.27;;;;;;;;;;5049371;28;20301;-62
2022/03/16 10:55:39;;;;;;;23.50;12.40;;;;;;;;;;5049246;28;20391;-61
2022/03/16 10:58:06;;;;;;;21.27;12.32;;;;;;;;;;5050010;28;20040;-62
2022/03/16 11:00:34;;;;;;;22.15;12.40;;;;;;;;;;5053935;28;20044;-61
2022/03/16 11:03:02;;;;;;;20.05;11.75;;;;;;;;;;5054882;28;20075;-61
2022/03/16 11:05:28;;;;;;;23.83;13.18;;;;;;;;;;5053063;28;20041;-61
2022/03/16 11:07:54;;;;;;;20.83;12.50;;;;;;;;;;5053534;28;20044;-62
2022/03/16 11:10:20;;;;;;;23.75;13.05;;;;;;;;;;5053446;28;20045;-62
2022/03/16 11:15:32;;;;;;;21.60;12.20;;;;;;;;;;5049271;28;20053;-61
2022/03/16 11:17:58;;;;;;;21.70;12.50;;;;;;;;;;5050481;28;20397;-62
2022/03/16 11:20:24;;;;;;;19.70;12.63;;;;;;;;;;5063622;28;20041;-62
2022/03/16 11:25:53;;;;;;;24.52;12.15;;;;;;;;;;5038573;28;20108;-62
2022/03/16 11:28:23;;;;;;;21.13;12.73;;;;;;;;;;5054399;28;20029;-61
2022/03/16 11:30:50;;;;;;;23.02;13.57;;;;;;;;;;5061131;28;20036;-61
2022/03/16 11:33:16;;;;;;;21.77;12.65;;;;;;;;;;5054553;28;20049;-61
2022/03/16 11:35:45;;;;;;;20.48;12.57;;;;;;;;;;5055941;22;20880;-60
2022/03/16 11:38:13;;;;;;;24.42;13.70;;;;;;;;;;5068988;28;20040;-60
2022/03/16 11:40:40;;;;;;;22.65;13.75;;;;;;;;;;5071716;28;20108;-61
2022/03/16 11:43:11;;;;;;;21.45;13.82;;;;;;;;;;5070955;28;20108;-59
2022/03/16 11:45:37;;;;;;;;;;;;;;;;;;5063149;28;20542;-60
2022/03/16 11:48:22;;;;;;;25.80;13.95;;;;;;;;;;5069493;28;20431;-59
2022/03/16 11:53:51;;;;;;;24.45;14.93;;;;;;;;;;5069143;28;20044;-60
2022/03/16 11:56:23;;;;;;;24.50;15.18;;;;;;;;;;5070477;28;20044;-60
2022/03/16 11:58:52;;;;;;;23.13;13.77;;;;;;;;;;5071599;28;20086;-60
2022/03/16 12:01:27;;;;;;;23.98;13.52;;;;;;;;;;5070604;28;20490;-60
2022/03/16 12:03:58;;;;;;;23.92;14.57;;;;;;;;;;5051529;28;20040;-60
2022/03/16 12:06:44;;;;;;;23.88;13.85;;;;;;;;;;5072030;28;20043;-60
2022/03/16 12:09:16;;;;;;;25.02;13.88;;;;;;;;;;5057081;28;20041;-60
2022/03/16 12:15:03;;;;;;;24.60;14.65;;;;;;;;;;5069326;28;20048;-60
2022/03/16 12:17:30;;;;;;;20.92;13.20;;;;;;;;;;5063137;28;20044;-60
2022/03/16 12:20:11;;;;;;;24.60;14.82;;;;;;;;;;5073584;28;20051;-60
2022/03/16 12:22:38;;;;;;;23.65;13.50;;;;;;;;;;5054173;28;20046;-60
2022/03/16 12:25:25;;;;;;;26.33;14.90;;;;;;;;;;5072921;28;20048;-60
2022/03/16 12:30:41;;;;;;;20.65;12.20;;;;;;;;;;5072576;28;20415;-60
2022/03/16 12:33:09;;;;;;;22.27;12.23;;;;;;;;;;5057590;28;20044;-60
2022/03/16 12:35:35;;;;;;;22.88;13.48;;;;;;;;;;5072118;28;20340;-61
2022/03/16 12:38:02;;;;;;;23.27;12.68;;;;;;;;;;5066015;28;20131;-60
2022/03/16 12:40:31;;;;;;;23.17;13.95;;;;;;;;;;5054086;28;20489;-60
2022/03/16 12:42:58;;;;;;;24.00;13.65;;;;;;;;;;5072420;28;20186;-61
2022/03/16 12:45:28;;;;;;;22.20;14.07;;;;;;;;;;5068210;28;20517;-60
2022/03/16 12:48:04;;;;;;;22.33;13.13;;;;;;;;;;5052351;28;20037;-61
2022/03/16 12:50:30;;;;;;;23.85;12.90;;;;;;;;;;5067591;28;20032;-61
2022/03/16 12:52:57;;;;;;;21.88;12.88;;;;;;;;;;5072228;28;20051;-61
2022/03/16 12:55:24;;;;;;;21.85;13.23;;;;;;;;;;5072450;28;20047;-61
2022/03/16 12:57:56;;;;;;;20.83;13.15;;;;;;;;;;5054038;28;20051;-61
2022/03/16 13:00:22;;;;;;;21.60;13.23;;;;;;;;;;5072527;28;20058;-60
2022/03/16 13:02:50;;;;;;;24.35;14.43;;;;;;;;;;5071891;28;20068;-60
2022/03/16 13:05:17;;;;;;;23.90;14.30;;;;;;;;;;5071259;28;20047;-61
2022/03/16 13:07:45;;;;;;;24.00;14.05;;;;;;;;;;5071807;28;20425;-61
2022/03/16 13:10:11;;;;;;;21.35;13.35;;;;;;;;;;5072440;28;20093;-61
2022/03/16 13:12:56;;;;;;;23.02;13.60;;;;;;;;;;5071912;28;20036;-61
2022/03/16 13:15:25;;;;;;;21.77;13.25;;;;;;;;;;5051871;28;20071;-61
2022/03/16 13:17:51;;;;;;;22.50;14.10;;;;;;;;;;5067575;28;20559;-61
2022/03/16 13:20:26;;;;;;;23.75;14.18;;;;;;;;;;5071778;28;20502;-61
2022/03/16 13:23:02;;;;;;;25.83;14.40;;;;;;;;;;5070764;28;20049;-61
2022/03/16 13:25:28;;;;;;;22.50;14.02;;;;;;;;;;5072013;28;20075;-60
2022/03/16 13:27:54;;;;;;;25.52;14.27;;;;;;;;;;5071343;28;20063;-60
2022/03/16 13:30:22;;;;;;;24.10;14.13;;;;;;;;;;5071793;28;20048;-60
2022/03/16 13:32:52;;;;;;;25.98;14.63;;;;;;;;;;5071353;28;20041;-60
2022/03/16 13:35:21;;;;;;;22.23;14.20;;;;;;;;;;5071716;28;20174;-60
2022/03/16 13:37:50;;;;;;;23.52;15.43;;;;;;;;;;5071026;28;20037;-61
2022/03/16 13:40:18;;;;;;;23.65;14.93;;;;;;;;;;5071886;28;20043;-61
2022/03/16 13:42:46;;;;;;;28.00;15.55;;;;;;;;;;5053718;28;20044;-60
2022/03/16 13:45:15;;;;;;;24.13;15.10;;;;;;;;;;5071451;28;20044;-60
2022/03/16 13:47:42;;;;;;;20.23;13.32;;;;;;;;;;5053162;28;20494;-60
2022/03/16 13:50:17;;;;;;;25.10;15.00;;;;;;;;;;5071867;28;20097;-60
2022/03/16 13:52:43;;;;;;;23.98;15.00;;;;;;;;;;5071403;28;20174;-60
2022/03/16 13:55:14;;;;;;;23.95;14.85;;;;;;;;;;5070588;28;20127;-61
2022/03/16 13:57:46;;;;;;;24.92;14.32;;;;;;;;;;5070942;28;20033;-61
2022/03/16 14:00:12;;;;;;;26.15;15.02;;;;;;;;;;5071963;28;20040;-60
2022/03/16 14:02:39;;;;;;;25.67;13.93;;;;;;;;;;5068843;28;20048;-61
2022/03/16 14:05:07;;;;;;;23.42;14.20;;;;;;;;;;5069923;28;20115;-60
2022/03/16 14:07:38;;;;;;;24.27;14.60;;;;;;;;;;5070596;28;20452;-61
2022/03/16 14:10:04;;;;;;;;;;;;;;;;;;5072340;28;20083;-60
2022/03/16 14:12:34;;;;;;;24.55;14.73;;;;;;;;;;5070830;28;19922;-61
2022/03/16 14:15:16;;;;;;;26.08;14.68;;;;;;;;;;5070930;28;20041;-61
2022/03/16 14:17:48;;;;;;;22.90;14.80;;;;;;;;;;5071069;28;20037;-60
2022/03/16 14:20:16;;;;;;;23.95;14.57;;;;;;;;;;5070991;28;20086;-60
2022/03/16 14:22:49;;;;;;;22.70;13.80;;;;;;;;;;5071124;28;20127;-60
2022/03/16 14:25:17;;;;;;;25.30;15.00;;;;;;;;;;5053385;28;20552;-60
2022/03/16 14:27:43;;;;;;;24.83;14.45;;;;;;;;;;5070435;28;20477;-60
2022/03/16 14:30:09;;;;;;;25.50;15.20;;;;;;;;;;5070427;28;20255;-60
2022/03/16 14:32:35;;;;;;;23.08;15.05;;;;;;;;;;5070806;28;20040;-60
2022/03/16 14:35:01;;;;;;;26.33;15.43;;;;;;;;;;5073048;28;20498;-60
2022/03/16 14:37:27;;;;;;;24.77;15.20;;;;;;;;;;5074038;28;20036;-60
2022/03/16 14:39:53;;;;;;;24.88;15.20;;;;;;;;;;5057381;28;20044;-60
2022/03/16 14:42:19;;;;;;;24.42;15.50;;;;;;;;;;5057276;28;20486;-60
2022/03/16 14:44:45;;;;;;;26.90;15.80;;;;;;;;;;5073992;28;20555;-60